Time;durP1;ratioP1;P1;durP2;ratioP2;P2;SDS_P1;SDS_P2;PMS_P1;PMS_P2;Temp;Humidity;BMP_temperature;BMP_pressure;BME280_temperature;BME280_humidity;BME280_pressure;Samples;Min_cycle;Max_cycle;Signal;HPM_P1;HPM_P2
2022/07/04 00:02:29;;;;;;;;;5.60;4.80;;;;;;;;5273610;27;8783;-69
2022/07/04 00:05:19;;;;;;;;;6.80;4.20;;;;;;;;5307250;27;8776;-68
2022/07/04 00:07:50;;;;;;;;;4.25;4.00;;;;;;;;5295540;28;8869;-67
2022/07/04 00:10:21;;;;;;;;;5.00;5.00;;;;;;;;5303241;28;11361;-68
2022/07/04 00:12:52;;;;;;;;;4.80;4.60;;;;;;;;5269568;28;8778;-68
2022/07/04 00:15:23;;;;;;;;;6.00;5.80;;;;;;;;5269679;28;8810;-68
2022/07/04 00:17:54;;;;;;;;;6.20;5.60;;;;;;;;5252721;28;8787;-69
2022/07/04 00:20:44;;;;;;;;;4.40;4.40;;;;;;;;5270043;28;8766;-68
2022/07/04 00:23:15;;;;;;;;;6.20;5.80;;;;;;;;5284569;28;8796;-67
2022/07/04 00:25:47;;;;;;;;;3.20;2.80;;;;;;;;5283424;27;8812;-68
2022/07/04 00:28:17;;;;;;;;;9.80;8.60;;;;;;;;5312784;27;8796;-68
2022/07/04 00:30:48;;;;;;;;;7.00;6.60;;;;;;;;5277103;27;8814;-68
2022/07/04 00:33:19;;;;;;;;;14.20;12.80;;;;;;;;5294402;27;8778;-69
2022/07/04 00:35:50;;;;;;;;;34.00;29.75;;;;;;;;5294269;27;8764;-68
2022/07/04 00:38:21;;;;;;;;;56.40;44.60;;;;;;;;5312316;27;8755;-68
2022/07/04 00:40:52;;;;;;;;;119.50;98.00;;;;;;;;5305792;27;8802;-69
2022/07/04 00:43:25;;;;;;;;;80.00;60.00;;;;;;;;5297221;27;8775;-69
2022/07/04 00:45:56;;;;;;;;;33.80;31.60;;;;;;;;5293742;27;11485;-69
2022/07/04 00:48:27;;;;;;;;;25.40;25.20;;;;;;;;5294138;27;9547;-69
2022/07/04 00:50:59;;;;;;;;;52.00;42.00;;;;;;;;5276768;27;8772;-69
2022/07/04 00:53:31;;;;;;;;;35.20;31.80;;;;;;;;5276680;27;11342;-69
2022/07/04 00:56:02;;;;;;;;;33.20;31.60;;;;;;;;5259830;27;9513;-69
2022/07/04 00:58:34;;;;;;;;;37.60;35.80;;;;;;;;5262683;28;8834;-68
2022/07/04 01:01:05;;;;;;;;;39.60;34.40;;;;;;;;5269789;28;8764;-69
2022/07/04 01:03:37;;;;;;;;;42.40;36.60;;;;;;;;5264081;28;8787;-69
2022/07/04 01:06:11;;;;;;;;;27.20;26.00;;;;;;;;5250962;28;8807;-69
2022/07/04 01:08:42;;;;;;;;;32.40;31.20;;;;;;;;5251317;28;8837;-69
2022/07/04 01:11:14;;;;;;;;;17.40;17.00;;;;;;;;5234944;28;8784;-67
2022/07/04 01:13:46;;;;;;;;;17.00;15.40;;;;;;;;5234465;28;8831;-69
2022/07/04 01:16:17;;;;;;;;;17.60;17.20;;;;;;;;5285108;28;8824;-69
2022/07/04 01:18:48;;;;;;;;;16.60;14.60;;;;;;;;5251159;28;9499;-69
2022/07/04 01:21:38;;;;;;;;;11.80;11.80;;;;;;;;5301478;27;8790;-69
2022/07/04 01:24:12;;;;;;;;;9.60;9.40;;;;;;;;5289758;28;8786;-69
2022/07/04 01:26:43;;;;;;;;;19.20;14.80;;;;;;;;5273008;28;8778;-68
2022/07/04 01:29:14;;;;;;;;;11.50;10.25;;;;;;;;5271683;28;8856;-67
2022/07/04 01:31:45;;;;;;;;;11.00;9.75;;;;;;;;5271992;28;11430;-67
2022/07/04 01:34:16;;;;;;;;;13.00;12.00;;;;;;;;5254738;28;11378;-67
2022/07/04 01:36:48;;;;;;;;;10.00;10.00;;;;;;;;5253870;28;8792;-67
2022/07/04 01:39:19;;;;;;;;;9.00;7.80;;;;;;;;5278541;27;8772;-68
2022/07/04 01:41:51;;;;;;;;;10.20;9.00;;;;;;;;5275838;27;8767;-69
2022/07/04 01:44:22;;;;;;;;;13.40;12.40;;;;;;;;5311935;27;8772;-68
2022/07/04 01:46:53;;;;;;;;;20.00;17.20;;;;;;;;5271915;28;8862;-69
2022/07/04 01:49:24;;;;;;;;;19.80;19.00;;;;;;;;5289801;28;8754;-69
2022/07/04 01:51:55;;;;;;;;;29.60;26.80;;;;;;;;5271378;28;8799;-70
2022/07/04 01:54:26;;;;;;;;;54.60;44.40;;;;;;;;5254571;28;8825;-69
2022/07/04 01:56:57;;;;;;;;;36.40;32.20;;;;;;;;5271416;28;8770;-69
2022/07/04 02:02:40;;;;;;;;;53.20;42.80;;;;;;;;5289568;27;8787;-69
2022/07/04 02:05:11;;;;;;;;;11.40;9.80;;;;;;;;5289178;28;8785;-69
2022/07/04 02:07:42;;;;;;;;;18.40;15.40;;;;;;;;5289567;28;8782;-69
2022/07/04 02:10:13;;;;;;;;;15.75;13.50;;;;;;;;5254156;28;9559;-69
2022/07/04 02:13:03;;;;;;;;;7.40;6.20;;;;;;;;5271129;28;10618;-69
2022/07/04 02:15:36;;;;;;;;;25.60;19.60;;;;;;;;5268091;27;8803;-69
2022/07/04 02:18:09;;;;;;;;;14.00;12.80;;;;;;;;5275096;27;8788;-68
2022/07/04 02:20:40;;;;;;;;;15.40;13.60;;;;;;;;5271945;28;8782;-68
2022/07/04 02:23:12;;;;;;;;;49.00;38.60;;;;;;;;5253521;28;8778;-68
2022/07/04 02:25:43;;;;;;;;;47.25;38.50;;;;;;;;5286482;27;8782;-68
2022/07/04 02:28:14;;;;;;;;;32.20;31.60;;;;;;;;5270716;28;11495;-68
2022/07/04 02:30:44;;;;;;;;;12.00;12.00;;;;;;;;5288788;28;8816;-67
2022/07/04 02:33:16;;;;;;;;;61.00;44.80;;;;;;;;5253480;28;11393;-67
2022/07/04 02:35:47;;;;;;;;;27.20;26.80;;;;;;;;5253156;28;8818;-68
2022/07/04 02:38:18;;;;;;;;;12.25;11.50;;;;;;;;5262839;27;8828;-68
2022/07/04 02:40:48;;;;;;;;;47.40;38.40;;;;;;;;5309827;27;12054;-67
2022/07/04 02:43:20;;;;;;;;;20.80;18.00;;;;;;;;5291265;27;8844;-68
2022/07/04 02:45:50;;;;;;;;;11.60;9.00;;;;;;;;5274532;27;9501;-67
2022/07/04 02:48:21;;;;;;;;;6.00;6.00;;;;;;;;5290560;27;8767;-68
2022/07/04 02:50:52;;;;;;;;;8.80;8.20;;;;;;;;5291829;27;8887;-68
2022/07/04 02:53:42;;;;;;;;;7.00;6.80;;;;;;;;5279005;28;8829;-67
2022/07/04 02:56:13;;;;;;;;;20.60;18.40;;;;;;;;5287614;28;8886;-68
2022/07/04 02:58:44;;;;;;;;;10.00;10.00;;;;;;;;5303033;27;8779;-68
2022/07/04 03:01:18;;;;;;;;;10.00;9.20;;;;;;;;5291798;27;10212;-68
2022/07/04 03:03:49;;;;;;;;;5.20;5.20;;;;;;;;5297389;27;8763;-68
2022/07/04 03:06:19;;;;;;;;;15.40;15.00;;;;;;;;5283416;27;8784;-68
2022/07/04 03:08:52;;;;;;;;;10.40;9.80;;;;;;;;5275492;28;8861;-68
2022/07/04 03:11:23;;;;;;;;;16.60;15.40;;;;;;;;5285992;28;8839;-68
2022/07/04 03:13:54;;;;;;;;;6.80;6.80;;;;;;;;5287839;28;8786;-68
2022/07/04 03:16:25;;;;;;;;;3.50;3.25;;;;;;;;5288609;28;8831;-68
2022/07/04 03:18:56;;;;;;;;;6.33;6.00;;;;;;;;5269930;28;8769;-68
2022/07/04 03:21:27;;;;;;;;;8.00;6.25;;;;;;;;5269817;28;11476;-67
2022/07/04 03:23:58;;;;;;;;;6.75;6.00;;;;;;;;5287525;28;8781;-67
2022/07/04 03:26:31;;;;;;;;;5.00;5.00;;;;;;;;5295476;28;8770;-67
2022/07/04 03:29:02;;;;;;;;;9.40;6.40;;;;;;;;5287631;28;8786;-69
2022/07/04 03:31:33;;;;;;;;;11.00;11.00;;;;;;;;5304038;27;8831;-68
2022/07/04 03:34:04;;;;;;;;;20.60;19.00;;;;;;;;5273741;27;8811;-67
2022/07/04 03:36:35;;;;;;;;;7.75;7.00;;;;;;;;5308937;27;8843;-69
2022/07/04 03:39:24;;;;;;;;;40.20;31.20;;;;;;;;5290767;27;8776;-69
2022/07/04 03:41:55;;;;;;;;;4.00;4.00;;;;;;;;5309016;27;8784;-67
2022/07/04 03:44:27;;;;;;;;;5.00;4.50;;;;;;;;5290076;27;9597;-69
2022/07/04 03:46:59;;;;;;;;;4.50;4.50;;;;;;;;5269693;28;8790;-67
2022/07/04 03:49:30;;;;;;;;;6.00;5.00;;;;;;;;5294804;28;8796;-67
2022/07/04 03:52:01;;;;;;;;;5.00;4.33;;;;;;;;5266884;28;9567;-67
2022/07/04 03:54:32;;;;;;;;;5.75;5.75;;;;;;;;5232587;27;9715;-68
2022/07/04 03:57:03;;;;;;;;;1.75;1.75;;;;;;;;5290470;27;8771;-68
2022/07/04 03:59:34;;;;;;;;;13.40;12.20;;;;;;;;5293235;27;8767;-67
2022/07/04 04:02:06;;;;;;;;;9.75;8.25;;;;;;;;5313313;27;8763;-67
2022/07/04 04:07:44;;;;;;;;;12.50;12.25;;;;;;;;5272219;27;8769;-67
2022/07/04 04:10:15;;;;;;;;;9.25;9.25;;;;;;;;5306421;27;8781;-67
2022/07/04 04:12:46;;;;;;;;;13.00;13.00;;;;;;;;5272291;28;8774;-68
2022/07/04 04:15:18;;;;;;;;;9.25;9.25;;;;;;;;5271993;28;8802;-67
2022/07/04 04:17:49;;;;;;;;;9.00;9.00;;;;;;;;5306420;27;8801;-69
2022/07/04 04:20:20;;;;;;;;;2.25;1.75;;;;;;;;5293353;27;8783;-67
2022/07/04 04:22:51;;;;;;;;;4.00;4.00;;;;;;;;5273366;28;8794;-68
2022/07/04 04:25:22;;;;;;;;;9.50;8.00;;;;;;;;5288960;28;8778;-67
2022/07/04 04:27:53;;;;;;;;;2.00;2.00;;;;;;;;5272381;28;8859;-68
2022/07/04 04:30:24;;;;;;;;;5.00;4.00;;;;;;;;5290144;28;8794;-70
2022/07/04 04:33:14;;;;;;;;;5.25;4.50;;;;;;;;5272061;28;11302;-68
2022/07/04 04:35:46;;;;;;;;;3.50;3.50;;;;;;;;5290087;28;8821;-68
2022/07/04 04:38:17;;;;;;;;;4.67;4.67;;;;;;;;5271932;28;9477;-68
2022/07/04 04:40:48;;;;;;;;;23.40;20.80;;;;;;;;5272284;28;11323;-68
2022/07/04 04:43:19;;;;;;;;;20.50;19.00;;;;;;;;5290557;28;8778;-67
2022/07/04 04:45:50;;;;;;;;;8.33;8.00;;;;;;;;5290541;28;11449;-68
2022/07/04 04:48:21;;;;;;;;;43.00;34.75;;;;;;;;5255771;28;11361;-69
2022/07/04 04:50:52;;;;;;;;;66.60;51.80;;;;;;;;5272297;28;8758;-67
2022/07/04 04:53:41;;;;;;;;;29.40;28.00;;;;;;;;5272550;28;8801;-67
2022/07/04 04:56:12;;;;;;;;;21.50;20.50;;;;;;;;5290926;28;8773;-67
2022/07/04 04:58:43;;;;;;;;;29.00;26.50;;;;;;;;5272726;28;11418;-67
2022/07/04 05:01:32;;;;;;;;;7.00;6.25;;;;;;;;5290639;28;11377;-67
2022/07/04 05:04:03;;;;;;;;;11.50;11.00;;;;;;;;5272728;28;8962;-66
2022/07/04 05:06:34;;;;;;;;;11.50;10.50;;;;;;;;5273307;28;8758;-68
2022/07/04 05:09:05;;;;;;;;;5.75;4.25;;;;;;;;5239290;28;8770;-66
2022/07/04 05:11:54;;;;;;;;;6.50;6.50;;;;;;;;5290674;28;8766;-67
2022/07/04 05:14:25;;;;;;;;;2.00;2.00;;;;;;;;5272199;28;8829;-67
2022/07/04 05:16:56;;;;;;;;;2.25;2.25;;;;;;;;5255255;28;11362;-67
2022/07/04 05:19:27;;;;;;;;;11.60;11.00;;;;;;;;5272263;28;8777;-66
2022/07/04 05:21:58;;;;;;;;;10.25;10.25;;;;;;;;5272241;28;8778;-66
2022/07/04 05:24:29;;;;;;;;;5.25;5.00;;;;;;;;5271601;28;8804;-67
2022/07/04 05:27:00;;;;;;;;;5.25;4.50;;;;;;;;5272155;28;8762;-67
2022/07/04 05:29:31;;;;;;;;;7.00;6.67;;;;;;;;5290095;28;8789;-68
2022/07/04 05:32:20;;;;;;;;;7.25;6.00;;;;;;;;5290005;28;12084;-67
2022/07/04 05:34:52;;;;;;;;;13.50;12.50;;;;;;;;5289869;28;8782;-67
2022/07/04 05:37:41;;;;;;;;;7.00;5.75;;;;;;;;5290445;28;8791;-66
2022/07/04 05:40:12;;;;;;;;;21.00;17.25;;;;;;;;5271636;28;8766;-66
2022/07/04 05:43:01;;;;;;;;;8.25;7.25;;;;;;;;5257442;28;11479;-67
2022/07/04 05:45:32;;;;;;;;;3.50;3.50;;;;;;;;5289740;28;8830;-67
2022/07/04 05:48:03;;;;;;;;;12.33;11.67;;;;;;;;5289586;28;8789;-67
2022/07/04 05:50:35;;;;;;;;;14.20;13.80;;;;;;;;5271773;28;10228;-67
2022/07/04 05:53:06;;;;;;;;;14.20;13.20;;;;;;;;5254708;28;8766;-67
2022/07/04 05:55:37;;;;;;;;;3.00;2.00;;;;;;;;5289455;28;9605;-67
2022/07/04 05:58:08;;;;;;;;;8.50;7.00;;;;;;;;5289259;28;9089;-67
2022/07/04 06:00:39;;;;;;;;;6.00;6.00;;;;;;;;5289516;28;8758;-67
2022/07/04 06:03:10;;;;;;;;;7.50;7.00;;;;;;;;5289344;28;9471;-67
2022/07/04 06:05:41;;;;;;;;;7.00;7.00;;;;;;;;5271507;28;8778;-67
2022/07/04 06:08:30;;;;;;;;;5.50;5.50;;;;;;;;5289244;28;11102;-67
2022/07/04 06:11:02;;;;;;;;;9.25;8.50;;;;;;;;5289120;28;8762;-67
2022/07/04 06:13:52;;;;;;;;;6.75;6.75;;;;;;;;5274203;28;8773;-67
2022/07/04 06:16:23;;;;;;;;;10.00;10.00;;;;;;;;5271594;28;8774;-67
2022/07/04 06:18:54;;;;;;;;;2.00;2.00;;;;;;;;5271273;28;8831;-67
2022/07/04 06:21:25;;;;;;;;;5.50;4.75;;;;;;;;5304751;27;8774;-67
2022/07/04 06:23:58;;;;;;;;;1.33;1.00;;;;;;;;5289028;28;8778;-67
2022/07/04 06:26:47;;;;;;;;;3.75;2.75;;;;;;;;5271023;28;11299;-67
2022/07/04 06:29:18;;;;;;;;;2.00;2.00;;;;;;;;5253859;28;8774;-67
2022/07/04 06:32:07;;;;;;;;;2.25;2.00;;;;;;;;5273787;28;8770;-67
2022/07/04 06:37:27;;;;;;;;;3.00;3.00;;;;;;;;5288824;28;8762;-67
2022/07/04 06:40:16;;;;;;;;;4.00;4.00;;;;;;;;5288992;28;9714;-67
2022/07/04 06:42:48;;;;;;;;;2.00;2.00;;;;;;;;5270644;28;8917;-67
2022/07/04 06:45:37;;;;;;;;;3.00;3.00;;;;;;;;5288911;28;8858;-67
2022/07/04 06:48:08;;;;;;;;;2.50;2.50;;;;;;;;5270533;28;8792;-67
2022/07/04 06:50:39;;;;;;;;;2.75;2.50;;;;;;;;5288675;28;9513;-67
2022/07/04 06:53:10;;;;;;;;;1.33;1.33;;;;;;;;5270561;28;8778;-67
2022/07/04 06:55:44;;;;;;;;;2.00;2.00;;;;;;;;5288573;28;8886;-67
2022/07/04 06:58:33;;;;;;;;;3.00;3.00;;;;;;;;5288550;28;8786;-67
2022/07/04 07:01:04;;;;;;;;;3.00;3.00;;;;;;;;5288979;28;8778;-67
2022/07/04 07:03:36;;;;;;;;;6.75;6.75;;;;;;;;5270319;28;11428;-67
2022/07/04 07:06:07;;;;;;;;;14.00;13.00;;;;;;;;5288329;28;8770;-67
2022/07/04 07:08:38;;;;;;;;;2.00;2.00;;;;;;;;5270280;28;8773;-67
2022/07/04 07:11:12;;;;;;;;;1.67;1.67;;;;;;;;5270214;28;8793;-67
2022/07/04 07:13:45;;;;;;;;;2.00;2.00;;;;;;;;5253576;28;11433;-67
2022/07/04 07:16:15;;;;;;;;;0.00;0.00;;;;;;;;5270241;28;8912;-67
2022/07/04 07:18:48;;;;;;;;;2.00;2.00;;;;;;;;5288373;28;8896;-67
2022/07/04 07:21:19;;;;;;;;;4.00;3.75;;;;;;;;5288117;28;11363;-68
2022/07/04 07:23:50;;;;;;;;;3.75;1.75;;;;;;;;5269770;28;8754;-67
2022/07/04 07:26:21;;;;;;;;;2.00;2.00;;;;;;;;5270159;28;9589;-67
2022/07/04 07:29:11;;;;;;;;;3.00;1.50;;;;;;;;5288108;28;8873;-67
2022/07/04 07:31:42;;;;;;;;;2.50;2.50;;;;;;;;5269918;28;8798;-67
2022/07/04 07:34:13;;;;;;;;;23.00;20.67;;;;;;;;5273132;28;8832;-67
2022/07/04 07:37:02;;;;;;;;;8.75;7.75;;;;;;;;5292527;28;9118;-67
2022/07/04 07:39:33;;;;;;;;;3.25;3.25;;;;;;;;5274050;28;8778;-67
2022/07/04 07:42:04;;;;;;;;;2.00;2.00;;;;;;;;5274140;28;8807;-67
2022/07/04 07:44:35;;;;;;;;;7.00;6.00;;;;;;;;5292765;28;8778;-67
2022/07/04 07:47:06;;;;;;;;;17.25;15.75;;;;;;;;5292318;28;8805;-67
2022/07/04 07:49:37;;;;;;;;;19.75;18.25;;;;;;;;5292133;28;8766;-67
2022/07/04 07:52:08;;;;;;;;;6.00;4.33;;;;;;;;5292131;28;8777;-67
2022/07/04 07:54:57;;;;;;;;;4.50;4.50;;;;;;;;5291927;28;11379;-67
2022/07/04 07:57:28;;;;;;;;;9.50;9.00;;;;;;;;5273913;28;8761;-67
2022/07/04 07:59:59;;;;;;;;;3.00;2.00;;;;;;;;5292015;28;8839;-67
2022/07/04 08:05:39;;;;;;;;;0.00;0.00;;;;;;;;5291973;28;8786;-67
2022/07/04 08:08:10;;;;;;;;;2.00;2.00;;;;;;;;5257045;28;8765;-67
2022/07/04 08:10:41;;;;;;;;;3.00;3.00;;;;;;;;5291757;28;8774;-67
2022/07/04 08:13:12;;;;;;;;;3.00;3.00;;;;;;;;5291822;28;9436;-68
2022/07/04 08:15:43;;;;;;;;;1.00;1.00;;;;;;;;5291676;28;9512;-67
2022/07/04 08:18:14;;;;;;;;;2.67;2.00;;;;;;;;5290296;28;9508;-67
2022/07/04 08:20:45;;;;;;;;;4.50;3.50;;;;;;;;5256680;28;9655;-67
2022/07/04 08:23:16;;;;;;;;;4.00;4.00;;;;;;;;5291524;28;9468;-67
2022/07/04 08:25:47;;;;;;;;;2.00;1.50;;;;;;;;5273360;28;8789;-68
2022/07/04 08:28:18;;;;;;;;;2.00;2.00;;;;;;;;5291200;28;8778;-67
2022/07/04 08:30:49;;;;;;;;;1.50;1.50;;;;;;;;5291251;28;9074;-67
2022/07/04 08:33:20;;;;;;;;;0.50;0.50;;;;;;;;5273342;28;8761;-67
2022/07/04 08:35:53;;;;;;;;;1.00;1.00;;;;;;;;5273198;28;9628;-67
2022/07/04 08:38:24;;;;;;;;;1.00;1.00;;;;;;;;5291048;28;8774;-67
2022/07/04 08:41:16;;;;;;;;;6.25;6.25;;;;;;;;5291261;28;9571;-67
2022/07/04 08:43:47;;;;;;;;;7.50;6.75;;;;;;;;5256005;28;8902;-67
2022/07/04 08:46:20;;;;;;;;;3.75;3.25;;;;;;;;5290471;28;8774;-67
2022/07/04 08:48:52;;;;;;;;;2.00;2.00;;;;;;;;5255989;28;8766;-67
2022/07/04 08:51:28;;;;;;;;;1.25;1.25;;;;;;;;5291714;28;8773;-67
2022/07/04 08:54:01;;;;;;;;;2.00;2.00;;;;;;;;5239262;28;8814;-67
2022/07/04 08:59:45;;;;;;;;;1.00;1.00;;;;;;;;5291099;28;8766;-67
2022/07/04 09:02:17;;;;;;;;;2.00;1.75;;;;;;;;5291158;28;8766;-67
2022/07/04 09:05:07;;;;;;;;;1.50;1.50;;;;;;;;5304382;27;9484;-67
2022/07/04 09:07:38;;;;;;;;;3.25;3.00;;;;;;;;5255406;28;8789;-67
2022/07/04 09:10:09;;;;;;;;;5.00;4.50;;;;;;;;5255443;28;8855;-67
2022/07/04 09:12:40;;;;;;;;;2.00;1.50;;;;;;;;5272305;28;8774;-67
2022/07/04 09:15:30;;;;;;;;;22.50;22.00;;;;;;;;5272223;28;9434;-67
2022/07/04 09:18:01;;;;;;;;;1.00;1.00;;;;;;;;5255477;28;8773;-67
2022/07/04 09:20:32;;;;;;;;;4.25;3.75;;;;;;;;5255466;28;8758;-67
2022/07/04 09:23:16;;;;;;;;;0.00;0.00;;;;;;;;5290873;28;9455;-67
2022/07/04 09:25:47;;;;;;;;;1.00;1.00;;;;;;;;5290463;28;8774;-67
2022/07/04 09:28:37;;;;;;;;;1.75;1.00;;;;;;;;5274810;28;8805;-67
2022/07/04 09:31:21;;;;;;;;;1.00;0.50;;;;;;;;5290462;28;9730;-67
2022/07/04 09:33:54;;;;;;;;;1.00;1.00;;;;;;;;5272154;28;8766;-67
2022/07/04 09:36:27;;;;;;;;;2.00;2.00;;;;;;;;5255021;28;9616;-67
2022/07/04 09:39:20;;;;;;;;;1.50;1.50;;;;;;;;5255156;28;8774;-68
2022/07/04 09:41:55;;;;;;;;;3.00;3.00;;;;;;;;5254712;28;8909;-67
2022/07/04 09:44:42;;;;;;;;;4.75;4.75;;;;;;;;5238313;28;8750;-67
2022/07/04 09:47:23;;;;;;;;;5.25;4.75;;;;;;;;5254858;28;8781;-67
2022/07/04 09:50:07;;;;;;;;;3.00;2.00;;;;;;;;5238385;28;8769;-67
2022/07/04 09:52:50;;;;;;;;;3.50;3.50;;;;;;;;5289794;28;8897;-67
2022/07/04 09:55:22;;;;;;;;;1.00;1.00;;;;;;;;5238022;28;8863;-68
2022/07/04 09:58:13;;;;;;;;;2.50;1.75;;;;;;;;5289177;28;9587;-67
2022/07/04 10:00:45;;;;;;;;;4.00;4.00;;;;;;;;5254412;28;8777;-67
2022/07/04 10:03:16;;;;;;;;;13.25;13.00;;;;;;;;5254449;28;8808;-67
2022/07/04 10:06:11;;;;;;;;;9.75;8.75;;;;;;;;5289516;28;8786;-67
2022/07/04 10:08:43;;;;;;;;;2.00;1.25;;;;;;;;5289821;28;8846;-67
2022/07/04 10:11:14;;;;;;;;;0.75;0.75;;;;;;;;5254245;28;8802;-67
2022/07/04 10:13:45;;;;;;;;;1.25;1.25;;;;;;;;5289417;28;9568;-67
2022/07/04 10:16:16;;;;;;;;;0.75;0.00;;;;;;;;5289285;28;8782;-67
2022/07/04 10:18:47;;;;;;;;;0.25;0.00;;;;;;;;5288983;28;9456;-67
2022/07/04 10:21:18;;;;;;;;;2.50;2.50;;;;;;;;5271222;28;8770;-67
2022/07/04 10:23:52;;;;;;;;;1.67;1.67;;;;;;;;5288992;28;8846;-67
2022/07/04 10:26:23;;;;;;;;;1.25;0.75;;;;;;;;5254039;28;8797;-67
2022/07/04 10:28:54;;;;;;;;;1.75;1.50;;;;;;;;5288873;28;8813;-67
2022/07/04 10:31:44;;;;;;;;;0.50;0.50;;;;;;;;5289324;28;9196;-67
2022/07/04 10:34:15;;;;;;;;;0.75;0.75;;;;;;;;5288956;28;8833;-67
2022/07/04 10:37:04;;;;;;;;;1.50;1.50;;;;;;;;5288923;28;9351;-67
2022/07/04 10:39:35;;;;;;;;;1.50;1.50;;;;;;;;5289304;28;8766;-67
2022/07/04 10:42:07;;;;;;;;;1.00;1.00;;;;;;;;5288609;28;8790;-67
2022/07/04 10:44:38;;;;;;;;;0.00;0.00;;;;;;;;5236959;28;11044;-67
2022/07/04 10:47:21;;;;;;;;;5.25;5.25;;;;;;;;5270437;28;8777;-67
2022/07/04 10:49:52;;;;;;;;;2.75;2.75;;;;;;;;5270586;28;9572;-67
2022/07/04 10:52:23;;;;;;;;;1.00;1.00;;;;;;;;5270622;28;8776;-67
2022/07/04 10:55:12;;;;;;;;;2.75;2.75;;;;;;;;5288416;28;11383;-67
2022/07/04 10:57:44;;;;;;;;;3.25;3.25;;;;;;;;5288577;28;8762;-67
2022/07/04 11:00:36;;;;;;;;;2.00;2.00;;;;;;;;5302490;27;8885;-67
2022/07/04 11:03:17;;;;;;;;;1.00;1.00;;;;;;;;5270782;28;8913;-67
2022/07/04 11:05:50;;;;;;;;;2.50;2.50;;;;;;;;5270313;28;8834;-67
2022/07/04 11:08:21;;;;;;;;;0.00;0.00;;;;;;;;5269986;28;8795;-67
2022/07/04 11:11:31;;;;;;;;;28.25;25.00;;;;;;;;5288712;28;8774;-67
2022/07/04 11:14:36;;;;;;;;;1.00;1.00;;;;;;;;5273154;28;9534;-67
2022/07/04 11:17:12;;;;;;;;;1.00;1.00;;;;;;;;5271029;28;8789;-67
2022/07/04 11:19:43;;;;;;;;;0.00;0.00;;;;;;;;5253317;28;8774;-67
2022/07/04 11:22:22;;;;;;;;;0.75;0.75;;;;;;;;5288293;28;8750;-67
2022/07/04 11:25:11;;;;;;;;;2.00;1.75;;;;;;;;5288118;28;8794;-67
2022/07/04 11:27:43;;;;;;;;;0.00;0.00;;;;;;;;5253270;28;8794;-68
2022/07/04 11:30:13;;;;;;;;;0.00;0.00;;;;;;;;5253552;28;8863;-67
2022/07/04 11:32:44;;;;;;;;;4.00;4.00;;;;;;;;5253069;28;8798;-67
2022/07/04 11:35:20;;;;;;;;;0.33;0.33;;;;;;;;5287989;28;10313;-69
2022/07/04 11:37:56;;;;;;;;;3.00;3.00;;;;;;;;5269808;28;8797;-67
2022/07/04 11:46:41;;;;;;;;;0.00;0.00;;;;;;;;5288256;28;8762;-67
2022/07/04 11:49:12;;;;;;;;;0.33;0.33;;;;;;;;5287944;28;8754;-67
2022/07/04 11:51:44;;;;;;;;;0.00;0.00;;;;;;;;5287820;28;10721;-67
2022/07/04 11:54:33;;;;;;;;;2.25;1.75;;;;;;;;5288260;28;8874;-66
2022/07/04 11:57:10;;;;;;;;;1.33;0.67;;;;;;;;5270177;28;9468;-66
2022/07/04 12:00:02;;;;;;;;;0.75;0.75;;;;;;;;5270082;28;8758;-67
2022/07/04 12:02:36;;;;;;;;;4.00;4.00;;;;;;;;5270200;28;9531;-67
2022/07/04 12:05:10;;;;;;;;;0.75;0.75;;;;;;;;5253278;28;8842;-67
2022/07/04 12:07:43;;;;;;;;;0.00;0.00;;;;;;;;5252848;28;8786;-67
2022/07/04 12:10:15;;;;;;;;;1.00;1.00;;;;;;;;5252808;28;8766;-67
2022/07/04 12:13:06;;;;;;;;;0.00;0.00;;;;;;;;5252954;28;8784;-68
2022/07/04 12:15:38;;;;;;;;;0.00;0.00;;;;;;;;5287627;28;8875;-66
2022/07/04 12:18:16;;;;;;;;;0.75;0.75;;;;;;;;5235869;28;8766;-66
2022/07/04 12:20:48;;;;;;;;;0.00;0.00;;;;;;;;5255020;28;9416;-66
2022/07/04 12:23:20;;;;;;;;;0.00;0.00;;;;;;;;5255965;28;8793;-68
2022/07/04 12:26:10;;;;;;;;;1.00;1.00;;;;;;;;5273368;28;8785;-68
2022/07/04 12:28:41;;;;;;;;;0.00;0.00;;;;;;;;5239760;28;8953;-67
2022/07/04 12:31:41;;;;;;;;;0.00;0.00;;;;;;;;5290266;28;8806;-70
2022/07/04 12:34:16;;;;;;;;;0.50;0.50;;;;;;;;5272881;28;8840;-68
2022/07/04 12:36:51;;;;;;;;;0.00;0.00;;;;;;;;5256001;28;8916;-68
2022/07/04 12:39:30;;;;;;;;;0.00;0.00;;;;;;;;5239596;28;8785;-68
2022/07/04 12:42:05;;;;;;;;;0.00;0.00;;;;;;;;5290935;28;8789;-68
2022/07/04 12:44:36;;;;;;;;;1.00;1.00;;;;;;;;5239236;28;8830;-66
2022/07/04 12:47:26;;;;;;;;;0.00;0.00;;;;;;;;5275841;28;8793;-67
2022/07/04 12:49:57;;;;;;;;;0.00;0.00;;;;;;;;5291085;28;8778;-67
2022/07/04 12:52:28;;;;;;;;;0.00;0.00;;;;;;;;5290636;28;8773;-67
2022/07/04 12:55:07;;;;;;;;;0.00;0.00;;;;;;;;5238920;28;11325;-67
2022/07/04 12:57:38;;;;;;;;;1.75;1.75;;;;;;;;5272833;28;8765;-67
2022/07/04 13:00:27;;;;;;;;;1.00;1.00;;;;;;;;5290784;28;8834;-68
2022/07/04 13:02:58;;;;;;;;;2.00;2.00;;;;;;;;5290582;28;9301;-66
2022/07/04 13:05:29;;;;;;;;;0.00;0.00;;;;;;;;5272750;28;11282;-66
2022/07/04 13:07:59;;;;;;;;;0.75;0.75;;;;;;;;5290522;28;11394;-65
2022/07/04 13:10:32;;;;;;;;;3.67;3.67;;;;;;;;5290407;28;8774;-66
2022/07/04 13:13:04;;;;;;;;;7.25;7.25;;;;;;;;5238777;28;8841;-67
2022/07/04 13:15:35;;;;;;;;;1.00;1.00;;;;;;;;5289896;28;8856;-67
2022/07/04 13:18:06;;;;;;;;;0.00;0.00;;;;;;;;5289409;28;8794;-67
2022/07/04 13:20:37;;;;;;;;;1.75;1.75;;;;;;;;5291076;28;8778;-66
2022/07/04 13:23:07;;;;;;;;;1.00;1.00;;;;;;;;5271885;28;8821;-67
2022/07/04 13:25:38;;;;;;;;;0.00;0.00;;;;;;;;5272041;28;8797;-67
2022/07/04 13:28:27;;;;;;;;;0.75;0.75;;;;;;;;5274953;28;11303;-68
2022/07/04 13:30:58;;;;;;;;;0.00;0.00;;;;;;;;5299496;27;9589;-67
2022/07/04 13:33:29;;;;;;;;;2.00;2.00;;;;;;;;5295516;27;12079;-68
2022/07/04 13:36:00;;;;;;;;;6.75;6.75;;;;;;;;5267297;28;12080;-68
2022/07/04 13:38:31;;;;;;;;;0.33;0.33;;;;;;;;5298275;27;8789;-67
2022/07/04 13:41:03;;;;;;;;;1.00;1.00;;;;;;;;5258945;27;10774;-66
2022/07/04 13:43:56;;;;;;;;;1.00;1.00;;;;;;;;5311116;27;8809;-66
2022/07/04 13:46:27;;;;;;;;;0.00;0.00;;;;;;;;5310351;27;8779;-66
2022/07/04 13:48:58;;;;;;;;;0.50;0.50;;;;;;;;5293517;27;8783;-66
2022/07/04 13:51:47;;;;;;;;;11.00;11.00;;;;;;;;5289850;28;8752;-66
2022/07/04 13:54:18;;;;;;;;;0.75;0.75;;;;;;;;5289677;28;8805;-65
2022/07/04 13:56:49;;;;;;;;;0.25;0.25;;;;;;;;5271377;28;8850;-66
2022/07/04 13:59:20;;;;;;;;;0.00;0.00;;;;;;;;5288658;28;8814;-66
2022/07/04 14:01:51;;;;;;;;;0.50;0.50;;;;;;;;5289681;28;8758;-67
2022/07/04 14:04:40;;;;;;;;;0.00;0.00;;;;;;;;5289637;28;8808;-67
2022/07/04 14:07:11;;;;;;;;;0.00;0.00;;;;;;;;5289470;27;8914;-67
2022/07/04 14:09:42;;;;;;;;;0.25;0.25;;;;;;;;5271395;28;8817;-67
2022/07/04 14:12:14;;;;;;;;;0.00;0.00;;;;;;;;5290273;27;9587;-67
2022/07/04 14:14:45;;;;;;;;;0.00;0.00;;;;;;;;5256937;27;8809;-67
2022/07/04 14:17:16;;;;;;;;;2.00;2.00;;;;;;;;5263790;28;8928;-67
2022/07/04 14:20:07;;;;;;;;;0.00;0.00;;;;;;;;5281104;28;9871;-68
2022/07/04 14:22:39;;;;;;;;;0.00;0.00;;;;;;;;5271077;28;8786;-67
2022/07/04 14:25:10;;;;;;;;;0.00;0.00;;;;;;;;5256628;27;8792;-67
2022/07/04 14:27:41;;;;;;;;;0.00;0.00;;;;;;;;5274929;27;8890;-68
2022/07/04 14:30:12;;;;;;;;;0.00;0.00;;;;;;;;5248776;28;8917;-67
2022/07/04 14:32:43;;;;;;;;;0.00;0.00;;;;;;;;5269761;27;8866;-68
2022/07/04 14:35:14;;;;;;;;;0.00;0.00;;;;;;;;5302647;27;8797;-67
2022/07/04 14:37:45;;;;;;;;;0.00;0.00;;;;;;;;5288649;28;8812;-67
2022/07/04 14:40:17;;;;;;;;;0.00;0.00;;;;;;;;5288383;28;11309;-67
2022/07/04 14:42:48;;;;;;;;;0.00;0.00;;;;;;;;5264951;28;10017;-67
2022/07/04 14:45:19;;;;;;;;;0.00;0.00;;;;;;;;5291247;27;8791;-67
2022/07/04 14:47:50;;;;;;;;;0.00;0.00;;;;;;;;5287708;27;10214;-67
2022/07/04 14:50:21;;;;;;;;;0.00;0.00;;;;;;;;5286329;28;11419;-68
2022/07/04 14:52:51;;;;;;;;;17.50;17.50;;;;;;;;5250930;28;8933;-68
2022/07/04 14:55:41;;;;;;;;;0.00;0.00;;;;;;;;5267879;28;9819;-68
2022/07/04 14:58:13;;;;;;;;;0.00;0.00;;;;;;;;5277499;27;8802;-68
2022/07/04 15:01:02;;;;;;;;;0.00;0.00;;;;;;;;5291994;27;8856;-67
2022/07/04 15:03:33;;;;;;;;;0.00;0.00;;;;;;;;5303321;27;8790;-67
2022/07/04 15:06:04;;;;;;;;;0.00;0.00;;;;;;;;5291167;27;8780;-67
2022/07/04 15:08:35;;;;;;;;;0.00;0.00;;;;;;;;5274627;27;11569;-67
2022/07/04 15:11:06;;;;;;;;;0.00;0.00;;;;;;;;5309399;27;11353;-67
2022/07/04 15:13:36;;;;;;;;;0.00;0.00;;;;;;;;5309891;27;8839;-66
2022/07/04 15:16:08;;;;;;;;;0.00;0.00;;;;;;;;5309278;27;8795;-67
2022/07/04 15:18:40;;;;;;;;;0.00;0.00;;;;;;;;5249662;28;10760;-67
2022/07/04 15:24:18;;;;;;;;;0.00;0.00;;;;;;;;5287823;27;8791;-67
2022/07/04 15:29:57;;;;;;;;;5.00;5.00;;;;;;;;5288048;28;8810;-67
2022/07/04 15:32:28;;;;;;;;;0.00;0.00;;;;;;;;5270702;28;8840;-68
2022/07/04 15:35:09;;;;;;;;;0.00;0.00;;;;;;;;5288359;27;11405;-68
2022/07/04 15:37:43;;;;;;;;;0.00;0.00;;;;;;;;5274968;28;8816;-67
2022/07/04 15:40:14;;;;;;;;;0.00;0.00;;;;;;;;5284170;27;8783;-67
2022/07/04 15:43:08;;;;;;;;;0.00;0.00;;;;;;;;5289350;27;8821;-69
2022/07/04 15:45:39;;;;;;;;;0.00;0.00;;;;;;;;5248934;28;11382;-68
2022/07/04 15:48:10;;;;;;;;;0.00;0.00;;;;;;;;5295563;27;9510;-68
2022/07/04 15:50:41;;;;;;;;;0.00;0.00;;;;;;;;5309190;27;8760;-68
2022/07/04 15:53:12;;;;;;;;;0.00;0.00;;;;;;;;5290922;27;8756;-68
2022/07/04 15:55:42;;;;;;;;;0.00;0.00;;;;;;;;5309769;27;8831;-68
2022/07/04 15:58:13;;;;;;;;;0.00;0.00;;;;;;;;5310872;27;8800;-67
2022/07/04 16:00:44;;;;;;;;;0.00;0.00;;;;;;;;5295394;27;11289;-67